sensor_id;sensor_type;location;lat;lon;timestamp;P1;durP1;ratioP1;P2;durP2;ratioP2
49548;SDS011;35450;44.518;7.466;2023-06-14T00:01:48;5.95;;;1.83;;
49548;SDS011;35450;44.518;7.466;2023-06-14T00:04:52;6.72;;;1.80;;
49548;SDS011;35450;44.518;7.466;2023-06-14T00:07:56;4.20;;;1.70;;
49548;SDS011;35450;44.518;7.466;2023-06-14T00:11:00;4.93;;;1.60;;
49548;SDS011;35450;44.518;7.466;2023-06-14T00:14:05;6.05;;;1.65;;
49548;SDS011;35450;44.518;7.466;2023-06-14T00:17:09;10.48;;;2.10;;
49548;SDS011;35450;44.518;7.466;2023-06-14T00:20:13;3.33;;;1.92;;
49548;SDS011;35450;44.518;7.466;2023-06-14T00:23:17;3.67;;;1.90;;
49548;SDS011;35450;44.518;7.466;2023-06-14T00:26:21;8.38;;;1.88;;
49548;SDS011;35450;44.518;7.466;2023-06-14T00:29:25;3.10;;;1.80;;
49548;SDS011;35450;44.518;7.466;2023-06-14T00:32:29;2.63;;;1.50;;
49548;SDS011;35450;44.518;7.466;2023-06-14T00:35:33;6.10;;;1.80;;
49548;SDS011;35450;44.518;7.466;2023-06-14T00:38:37;5.03;;;2.00;;
49548;SDS011;35450;44.518;7.466;2023-06-14T00:41:41;4.53;;;1.88;;
49548;SDS011;35450;44.518;7.466;2023-06-14T00:44:45;4.30;;;2.00;;
49548;SDS011;35450;44.518;7.466;2023-06-14T00:47:49;8.18;;;1.85;;
49548;SDS011;35450;44.518;7.466;2023-06-14T00:50:56;10.52;;;1.85;;
49548;SDS011;35450;44.518;7.466;2023-06-14T00:54:01;13.55;;;2.30;;
49548;SDS011;35450;44.518;7.466;2023-06-14T00:57:05;12.98;;;2.40;;
49548;SDS011;35450;44.518;7.466;2023-06-14T01:00:10;10.05;;;2.50;;
49548;SDS011;35450;44.518;7.466;2023-06-14T01:03:15;4.13;;;2.20;;
49548;SDS011;35450;44.518;7.466;2023-06-14T01:06:45;3.67;;;2.22;;
49548;SDS011;35450;44.518;7.466;2023-06-14T01:13:22;8.35;;;1.92;;
49548;SDS011;35450;44.518;7.466;2023-06-14T01:16:30;4.03;;;2.28;;
49548;SDS011;35450;44.518;7.466;2023-06-14T01:19:35;7.55;;;2.35;;
49548;SDS011;35450;44.518;7.466;2023-06-14T01:22:52;7.32;;;1.90;;
49548;SDS011;35450;44.518;7.466;2023-06-14T01:25:57;4.07;;;1.80;;
49548;SDS011;35450;44.518;7.466;2023-06-14T01:29:01;10.07;;;2.45;;
49548;SDS011;35450;44.518;7.466;2023-06-14T01:32:05;13.30;;;2.03;;
49548;SDS011;35450;44.518;7.466;2023-06-14T01:35:10;6.05;;;2.78;;
49548;SDS011;35450;44.518;7.466;2023-06-14T01:38:15;10.20;;;2.17;;
49548;SDS011;35450;44.518;7.466;2023-06-14T01:41:20;8.75;;;2.30;;
49548;SDS011;35450;44.518;7.466;2023-06-14T01:44:25;10.10;;;2.53;;
49548;SDS011;35450;44.518;7.466;2023-06-14T01:47:31;2.75;;;2.08;;
49548;SDS011;35450;44.518;7.466;2023-06-14T01:50:36;12.68;;;1.95;;
49548;SDS011;35450;44.518;7.466;2023-06-14T01:53:41;9.02;;;2.50;;
49548;SDS011;35450;44.518;7.466;2023-06-14T01:56:47;6.43;;;2.10;;
49548;SDS011;35450;44.518;7.466;2023-06-14T01:59:51;15.25;;;3.20;;
49548;SDS011;35450;44.518;7.466;2023-06-14T02:02:55;5.20;;;2.13;;
49548;SDS011;35450;44.518;7.466;2023-06-14T02:06:00;8.75;;;2.33;;
49548;SDS011;35450;44.518;7.466;2023-06-14T02:09:04;13.90;;;2.85;;
49548;SDS011;35450;44.518;7.466;2023-06-14T02:12:08;5.25;;;3.10;;
49548;SDS011;35450;44.518;7.466;2023-06-14T02:15:13;10.05;;;2.90;;
49548;SDS011;35450;44.518;7.466;2023-06-14T02:18:20;4.32;;;2.45;;
49548;SDS011;35450;44.518;7.466;2023-06-14T02:21:24;8.85;;;2.47;;
49548;SDS011;35450;44.518;7.466;2023-06-14T02:24:29;12.50;;;2.20;;
49548;SDS011;35450;44.518;7.466;2023-06-14T02:27:33;11.15;;;2.67;;
49548;SDS011;35450;44.518;7.466;2023-06-14T02:30:38;9.55;;;2.75;;
49548;SDS011;35450;44.518;7.466;2023-06-14T02:33:42;5.43;;;1.98;;
49548;SDS011;35450;44.518;7.466;2023-06-14T02:36:46;6.13;;;2.00;;
49548;SDS011;35450;44.518;7.466;2023-06-14T02:39:51;3.78;;;1.70;;
49548;SDS011;35450;44.518;7.466;2023-06-14T02:42:55;8.30;;;2.08;;
49548;SDS011;35450;44.518;7.466;2023-06-14T02:45:59;9.95;;;2.05;;
49548;SDS011;35450;44.518;7.466;2023-06-14T02:49:03;4.72;;;1.83;;
49548;SDS011;35450;44.518;7.466;2023-06-14T02:52:08;5.55;;;2.45;;
49548;SDS011;35450;44.518;7.466;2023-06-14T02:55:12;10.15;;;1.30;;
49548;SDS011;35450;44.518;7.466;2023-06-14T02:58:17;3.78;;;1.42;;
49548;SDS011;35450;44.518;7.466;2023-06-14T03:01:22;3.47;;;1.25;;
49548;SDS011;35450;44.518;7.466;2023-06-14T03:04:27;8.85;;;1.73;;
49548;SDS011;35450;44.518;7.466;2023-06-14T03:07:32;17.83;;;1.98;;
49548;SDS011;35450;44.518;7.466;2023-06-14T03:10:38;11.05;;;3.05;;
49548;SDS011;35450;44.518;7.466;2023-06-14T03:13:43;2.90;;;2.53;;
49548;SDS011;35450;44.518;7.466;2023-06-14T03:16:49;5.35;;;2.95;;
49548;SDS011;35450;44.518;7.466;2023-06-14T03:19:54;9.40;;;3.38;;
49548;SDS011;35450;44.518;7.466;2023-06-14T03:22:58;9.15;;;3.10;;
49548;SDS011;35450;44.518;7.466;2023-06-14T03:26:04;7.03;;;3.40;;
49548;SDS011;35450;44.518;7.466;2023-06-14T03:29:08;6.13;;;3.42;;
49548;SDS011;35450;44.518;7.466;2023-06-14T03:32:12;5.53;;;2.97;;
49548;SDS011;35450;44.518;7.466;2023-06-14T03:35:19;12.55;;;3.78;;
49548;SDS011;35450;44.518;7.466;2023-06-14T03:38:26;9.43;;;3.25;;
49548;SDS011;35450;44.518;7.466;2023-06-14T03:41:30;8.38;;;2.95;;
49548;SDS011;35450;44.518;7.466;2023-06-14T03:44:33;5.63;;;2.80;;
49548;SDS011;35450;44.518;7.466;2023-06-14T03:47:38;6.28;;;2.70;;
49548;SDS011;35450;44.518;7.466;2023-06-14T03:50:42;3.17;;;2.83;;
49548;SDS011;35450;44.518;7.466;2023-06-14T03:53:48;6.28;;;2.83;;
49548;SDS011;35450;44.518;7.466;2023-06-14T03:56:52;8.65;;;2.63;;
49548;SDS011;35450;44.518;7.466;2023-06-14T03:59:56;9.52;;;2.85;;
49548;SDS011;35450;44.518;7.466;2023-06-14T04:03:00;6.55;;;2.70;;
49548;SDS011;35450;44.518;7.466;2023-06-14T04:06:07;8.77;;;3.35;;
49548;SDS011;35450;44.518;7.466;2023-06-14T04:09:11;5.47;;;2.97;;
49548;SDS011;35450;44.518;7.466;2023-06-14T04:12:14;3.25;;;2.70;;
49548;SDS011;35450;44.518;7.466;2023-06-14T04:15:19;6.13;;;3.22;;
49548;SDS011;35450;44.518;7.466;2023-06-14T04:18:22;9.45;;;3.25;;
49548;SDS011;35450;44.518;7.466;2023-06-14T04:21:27;6.05;;;3.65;;
49548;SDS011;35450;44.518;7.466;2023-06-14T04:24:33;4.95;;;4.18;;
49548;SDS011;35450;44.518;7.466;2023-06-14T04:27:38;5.90;;;4.75;;
49548;SDS011;35450;44.518;7.466;2023-06-14T04:30:43;8.85;;;5.93;;
49548;SDS011;35450;44.518;7.466;2023-06-14T04:33:52;6.35;;;5.03;;
49548;SDS011;35450;44.518;7.466;2023-06-14T04:36:59;8.70;;;5.25;;
49548;SDS011;35450;44.518;7.466;2023-06-14T04:40:10;8.00;;;5.15;;
49548;SDS011;35450;44.518;7.466;2023-06-14T04:43:16;9.23;;;5.00;;
49548;SDS011;35450;44.518;7.466;2023-06-14T04:46:22;6.05;;;4.65;;
49548;SDS011;35450;44.518;7.466;2023-06-14T04:49:26;7.47;;;4.47;;
49548;SDS011;35450;44.518;7.466;2023-06-14T04:52:31;7.18;;;4.85;;
49548;SDS011;35450;44.518;7.466;2023-06-14T04:55:35;5.22;;;4.72;;
49548;SDS011;35450;44.518;7.466;2023-06-14T04:58:41;11.23;;;4.57;;
49548;SDS011;35450;44.518;7.466;2023-06-14T05:01:45;6.75;;;4.22;;
49548;SDS011;35450;44.518;7.466;2023-06-14T05:04:52;9.55;;;4.82;;
49548;SDS011;35450;44.518;7.466;2023-06-14T05:07:56;4.97;;;4.32;;
49548;SDS011;35450;44.518;7.466;2023-06-14T05:11:00;8.57;;;5.18;;
49548;SDS011;35450;44.518;7.466;2023-06-14T05:14:05;6.85;;;4.25;;
49548;SDS011;35450;44.518;7.466;2023-06-14T05:17:09;8.43;;;4.68;;
49548;SDS011;35450;44.518;7.466;2023-06-14T05:20:13;4.35;;;3.63;;
49548;SDS011;35450;44.518;7.466;2023-06-14T05:23:18;6.15;;;4.53;;
49548;SDS011;35450;44.518;7.466;2023-06-14T05:26:22;6.28;;;4.63;;
49548;SDS011;35450;44.518;7.466;2023-06-14T05:29:32;10.98;;;5.45;;
49548;SDS011;35450;44.518;7.466;2023-06-14T05:32:36;7.95;;;4.80;;
49548;SDS011;35450;44.518;7.466;2023-06-14T05:35:39;6.43;;;4.05;;
49548;SDS011;35450;44.518;7.466;2023-06-14T05:38:44;8.68;;;3.15;;
49548;SDS011;35450;44.518;7.466;2023-06-14T05:41:49;7.43;;;2.92;;
49548;SDS011;35450;44.518;7.466;2023-06-14T05:44:53;5.43;;;3.17;;
49548;SDS011;35450;44.518;7.466;2023-06-14T05:47:57;4.65;;;3.40;;
49548;SDS011;35450;44.518;7.466;2023-06-14T05:51:01;6.38;;;4.25;;
49548;SDS011;35450;44.518;7.466;2023-06-14T05:54:05;4.10;;;3.65;;
49548;SDS011;35450;44.518;7.466;2023-06-14T05:57:09;5.25;;;3.80;;
49548;SDS011;35450;44.518;7.466;2023-06-14T06:00:15;7.60;;;3.20;;
49548;SDS011;35450;44.518;7.466;2023-06-14T06:03:19;9.48;;;3.00;;
49548;SDS011;35450;44.518;7.466;2023-06-14T06:06:24;6.78;;;3.60;;
49548;SDS011;35450;44.518;7.466;2023-06-14T06:09:28;4.93;;;3.40;;
49548;SDS011;35450;44.518;7.466;2023-06-14T06:12:33;11.40;;;3.63;;
49548;SDS011;35450;44.518;7.466;2023-06-14T06:15:37;7.65;;;3.45;;
49548;SDS011;35450;44.518;7.466;2023-06-14T06:18:41;4.50;;;3.22;;
49548;SDS011;35450;44.518;7.466;2023-06-14T06:21:45;8.60;;;3.50;;
49548;SDS011;35450;44.518;7.466;2023-06-14T06:24:50;4.10;;;3.47;;
49548;SDS011;35450;44.518;7.466;2023-06-14T06:27:54;4.25;;;3.20;;
49548;SDS011;35450;44.518;7.466;2023-06-14T06:31:01;6.10;;;3.20;;
49548;SDS011;35450;44.518;7.466;2023-06-14T06:34:06;5.95;;;3.75;;
49548;SDS011;35450;44.518;7.466;2023-06-14T06:37:10;8.10;;;3.83;;
49548;SDS011;35450;44.518;7.466;2023-06-14T06:40:14;7.65;;;3.88;;
49548;SDS011;35450;44.518;7.466;2023-06-14T06:43:18;5.28;;;4.07;;
49548;SDS011;35450;44.518;7.466;2023-06-14T06:46:25;7.20;;;4.22;;
49548;SDS011;35450;44.518;7.466;2023-06-14T06:49:29;7.40;;;4.22;;
49548;SDS011;35450;44.518;7.466;2023-06-14T06:52:33;5.82;;;4.07;;
49548;SDS011;35450;44.518;7.466;2023-06-14T06:55:37;4.05;;;3.65;;
49548;SDS011;35450;44.518;7.466;2023-06-14T06:58:41;6.22;;;5.35;;
49548;SDS011;35450;44.518;7.466;2023-06-14T07:01:46;8.95;;;6.93;;
49548;SDS011;35450;44.518;7.466;2023-06-14T07:04:50;6.97;;;6.05;;
49548;SDS011;35450;44.518;7.466;2023-06-14T07:07:56;5.70;;;4.65;;
49548;SDS011;35450;44.518;7.466;2023-06-14T07:11:00;6.88;;;4.63;;
49548;SDS011;35450;44.518;7.466;2023-06-14T07:14:04;6.75;;;5.13;;
49548;SDS011;35450;44.518;7.466;2023-06-14T07:17:09;5.68;;;4.72;;
49548;SDS011;35450;44.518;7.466;2023-06-14T07:20:14;4.85;;;4.28;;
49548;SDS011;35450;44.518;7.466;2023-06-14T07:23:22;6.55;;;4.35;;
49548;SDS011;35450;44.518;7.466;2023-06-14T07:26:26;5.05;;;4.55;;
49548;SDS011;35450;44.518;7.466;2023-06-14T07:29:31;4.82;;;4.38;;
49548;SDS011;35450;44.518;7.466;2023-06-14T07:32:35;5.07;;;4.22;;
49548;SDS011;35450;44.518;7.466;2023-06-14T07:35:40;5.05;;;3.90;;
49548;SDS011;35450;44.518;7.466;2023-06-14T07:38:45;4.40;;;3.90;;
49548;SDS011;35450;44.518;7.466;2023-06-14T07:41:50;4.45;;;4.05;;
49548;SDS011;35450;44.518;7.466;2023-06-14T07:44:54;4.20;;;3.47;;
49548;SDS011;35450;44.518;7.466;2023-06-14T07:47:58;4.30;;;3.88;;
49548;SDS011;35450;44.518;7.466;2023-06-14T07:51:02;4.80;;;4.28;;
49548;SDS011;35450;44.518;7.466;2023-06-14T07:54:06;3.63;;;3.22;;
49548;SDS011;35450;44.518;7.466;2023-06-14T07:57:11;4.68;;;2.88;;
49548;SDS011;35450;44.518;7.466;2023-06-14T08:00:15;1.33;;;0.70;;
49548;SDS011;35450;44.518;7.466;2023-06-14T08:03:21;4.32;;;1.00;;
49548;SDS011;35450;44.518;7.466;2023-06-14T08:06:25;2.65;;;0.77;;
49548;SDS011;35450;44.518;7.466;2023-06-14T08:09:29;2.40;;;1.20;;
49548;SDS011;35450;44.518;7.466;2023-06-14T08:12:34;5.53;;;2.95;;
49548;SDS011;35450;44.518;7.466;2023-06-14T08:15:37;3.58;;;2.90;;
49548;SDS011;35450;44.518;7.466;2023-06-14T08:18:42;4.05;;;3.50;;
49548;SDS011;35450;44.518;7.466;2023-06-14T08:21:46;1.10;;;0.93;;
49548;SDS011;35450;44.518;7.466;2023-06-14T08:24:50;1.67;;;0.70;;
49548;SDS011;35450;44.518;7.466;2023-06-14T08:27:56;0.60;;;0.60;;
49548;SDS011;35450;44.518;7.466;2023-06-14T08:31:02;1.25;;;0.60;;
49548;SDS011;35450;44.518;7.466;2023-06-14T08:34:06;2.35;;;0.60;;
49548;SDS011;35450;44.518;7.466;2023-06-14T08:37:10;0.82;;;0.60;;
49548;SDS011;35450;44.518;7.466;2023-06-14T08:40:18;0.85;;;0.70;;
49548;SDS011;35450;44.518;7.466;2023-06-14T08:43:24;1.00;;;0.90;;
49548;SDS011;35450;44.518;7.466;2023-06-14T08:46:28;2.40;;;0.80;;
49548;SDS011;35450;44.518;7.466;2023-06-14T08:49:34;0.40;;;0.40;;
49548;SDS011;35450;44.518;7.466;2023-06-14T08:52:41;0.40;;;0.38;;
49548;SDS011;35450;44.518;7.466;2023-06-14T08:55:54;2.35;;;0.40;;
49548;SDS011;35450;44.518;7.466;2023-06-14T08:58:59;0.77;;;0.20;;
49548;SDS011;35450;44.518;7.466;2023-06-14T09:02:09;0.73;;;0.47;;
49548;SDS011;35450;44.518;7.466;2023-06-14T09:05:18;1.63;;;0.60;;
49548;SDS011;35450;44.518;7.466;2023-06-14T09:08:22;1.77;;;0.55;;
49548;SDS011;35450;44.518;7.466;2023-06-14T09:11:26;2.05;;;0.88;;
49548;SDS011;35450;44.518;7.466;2023-06-14T09:14:31;2.08;;;0.80;;
49548;SDS011;35450;44.518;7.466;2023-06-14T09:17:42;1.65;;;0.70;;
49548;SDS011;35450;44.518;7.466;2023-06-14T09:20:46;4.70;;;1.17;;
49548;SDS011;35450;44.518;7.466;2023-06-14T09:23:51;1.92;;;1.25;;
49548;SDS011;35450;44.518;7.466;2023-06-14T09:26:57;3.05;;;1.20;;
49548;SDS011;35450;44.518;7.466;2023-06-14T09:30:06;3.30;;;1.10;;
49548;SDS011;35450;44.518;7.466;2023-06-14T09:33:16;2.05;;;0.80;;
49548;SDS011;35450;44.518;7.466;2023-06-14T09:36:22;1.42;;;0.70;;
49548;SDS011;35450;44.518;7.466;2023-06-14T09:39:27;1.45;;;0.68;;
49548;SDS011;35450;44.518;7.466;2023-06-14T09:42:31;2.13;;;0.98;;
49548;SDS011;35450;44.518;7.466;2023-06-14T09:45:35;3.85;;;0.77;;
49548;SDS011;35450;44.518;7.466;2023-06-14T09:48:43;1.52;;;0.85;;
49548;SDS011;35450;44.518;7.466;2023-06-14T09:51:49;1.00;;;0.90;;
49548;SDS011;35450;44.518;7.466;2023-06-14T09:54:56;1.73;;;0.80;;
49548;SDS011;35450;44.518;7.466;2023-06-14T09:58:06;1.58;;;0.80;;
49548;SDS011;35450;44.518;7.466;2023-06-14T10:01:11;1.95;;;1.33;;
49548;SDS011;35450;44.518;7.466;2023-06-14T10:04:17;3.33;;;1.83;;
49548;SDS011;35450;44.518;7.466;2023-06-14T10:07:25;2.42;;;1.70;;
49548;SDS011;35450;44.518;7.466;2023-06-14T10:10:34;2.47;;;1.40;;
49548;SDS011;35450;44.518;7.466;2023-06-14T10:13:38;1.08;;;0.93;;
49548;SDS011;35450;44.518;7.466;2023-06-14T10:16:45;2.50;;;2.30;;
49548;SDS011;35450;44.518;7.466;2023-06-14T10:20:28;1.98;;;1.25;;
49548;SDS011;35450;44.518;7.466;2023-06-14T10:23:53;0.80;;;0.65;;
49548;SDS011;35450;44.518;7.466;2023-06-14T10:27:00;3.08;;;1.05;;
49548;SDS011;35450;44.518;7.466;2023-06-14T10:30:06;1.17;;;1.08;;
49548;SDS011;35450;44.518;7.466;2023-06-14T10:33:11;1.70;;;1.10;;
49548;SDS011;35450;44.518;7.466;2023-06-14T10:39:25;1.95;;;1.23;;
49548;SDS011;35450;44.518;7.466;2023-06-14T10:42:33;1.75;;;1.20;;
49548;SDS011;35450;44.518;7.466;2023-06-14T10:45:37;0.98;;;0.88;;
49548;SDS011;35450;44.518;7.466;2023-06-14T10:49:17;1.55;;;1.27;;
49548;SDS011;35450;44.518;7.466;2023-06-14T10:52:23;1.50;;;0.90;;
49548;SDS011;35450;44.518;7.466;2023-06-14T10:55:28;2.45;;;1.20;;
49548;SDS011;35450;44.518;7.466;2023-06-14T10:58:39;1.35;;;0.98;;
49548;SDS011;35450;44.518;7.466;2023-06-14T11:05:27;1.80;;;0.77;;
49548;SDS011;35450;44.518;7.466;2023-06-14T11:11:57;1.10;;;0.80;;
49548;SDS011;35450;44.518;7.466;2023-06-14T11:15:05;1.38;;;0.60;;
49548;SDS011;35450;44.518;7.466;2023-06-14T11:18:09;0.95;;;0.93;;
49548;SDS011;35450;44.518;7.466;2023-06-14T11:21:15;3.88;;;1.40;;
49548;SDS011;35450;44.518;7.466;2023-06-14T11:24:23;1.42;;;1.23;;
49548;SDS011;35450;44.518;7.466;2023-06-14T11:27:27;2.78;;;1.90;;
49548;SDS011;35450;44.518;7.466;2023-06-14T11:30:31;4.15;;;3.75;;
49548;SDS011;35450;44.518;7.466;2023-06-14T11:33:36;6.15;;;5.13;;
49548;SDS011;35450;44.518;7.466;2023-06-14T11:36:40;5.50;;;5.00;;
49548;SDS011;35450;44.518;7.466;2023-06-14T11:39:45;6.00;;;5.13;;
49548;SDS011;35450;44.518;7.466;2023-06-14T11:42:49;6.25;;;5.60;;
49548;SDS011;35450;44.518;7.466;2023-06-14T11:45:53;6.00;;;5.03;;
49548;SDS011;35450;44.518;7.466;2023-06-14T11:48:57;6.63;;;5.35;;
49548;SDS011;35450;44.518;7.466;2023-06-14T11:52:01;7.63;;;4.40;;
49548;SDS011;35450;44.518;7.466;2023-06-14T11:55:06;6.30;;;4.50;;
49548;SDS011;35450;44.518;7.466;2023-06-14T11:58:10;4.32;;;3.92;;
49548;SDS011;35450;44.518;7.466;2023-06-14T12:01:18;2.88;;;2.42;;
49548;SDS011;35450;44.518;7.466;2023-06-14T12:04:26;4.65;;;3.30;;
49548;SDS011;35450;44.518;7.466;2023-06-14T12:07:30;4.10;;;3.70;;
49548;SDS011;35450;44.518;7.466;2023-06-14T12:10:44;3.40;;;3.10;;
49548;SDS011;35450;44.518;7.466;2023-06-14T12:13:48;4.28;;;2.63;;
49548;SDS011;35450;44.518;7.466;2023-06-14T12:17:03;5.63;;;3.28;;
49548;SDS011;35450;44.518;7.466;2023-06-14T12:20:11;3.47;;;3.17;;
49548;SDS011;35450;44.518;7.466;2023-06-14T12:23:25;3.47;;;3.17;;
49548;SDS011;35450;44.518;7.466;2023-06-14T12:26:29;4.85;;;3.15;;
49548;SDS011;35450;44.518;7.466;2023-06-14T12:29:34;3.55;;;3.25;;
49548;SDS011;35450;44.518;7.466;2023-06-14T12:32:39;2.85;;;2.65;;
49548;SDS011;35450;44.518;7.466;2023-06-14T12:35:43;4.72;;;3.47;;
49548;SDS011;35450;44.518;7.466;2023-06-14T12:38:47;3.85;;;3.45;;
49548;SDS011;35450;44.518;7.466;2023-06-14T12:41:52;3.35;;;3.00;;
49548;SDS011;35450;44.518;7.466;2023-06-14T12:44:56;3.55;;;2.40;;
49548;SDS011;35450;44.518;7.466;2023-06-14T12:48:00;2.17;;;1.98;;
49548;SDS011;35450;44.518;7.466;2023-06-14T12:51:04;2.22;;;2.03;;
49548;SDS011;35450;44.518;7.466;2023-06-14T12:54:08;6.50;;;2.50;;
49548;SDS011;35450;44.518;7.466;2023-06-14T12:57:13;3.38;;;1.65;;
49548;SDS011;35450;44.518;7.466;2023-06-14T13:00:17;4.25;;;2.00;;
49548;SDS011;35450;44.518;7.466;2023-06-14T13:03:21;3.72;;;1.60;;
49548;SDS011;35450;44.518;7.466;2023-06-14T13:06:25;1.90;;;1.70;;
49548;SDS011;35450;44.518;7.466;2023-06-14T13:09:30;2.10;;;1.90;;
49548;SDS011;35450;44.518;7.466;2023-06-14T13:12:34;2.08;;;1.40;;
49548;SDS011;35450;44.518;7.466;2023-06-14T13:15:39;1.45;;;1.33;;
49548;SDS011;35450;44.518;7.466;2023-06-14T13:18:43;1.75;;;1.55;;
49548;SDS011;35450;44.518;7.466;2023-06-14T13:21:48;4.50;;;1.90;;
49548;SDS011;35450;44.518;7.466;2023-06-14T13:24:52;1.42;;;1.17;;
49548;SDS011;35450;44.518;7.466;2023-06-14T13:27:57;1.20;;;1.10;;
49548;SDS011;35450;44.518;7.466;2023-06-14T13:31:01;1.02;;;0.80;;
49548;SDS011;35450;44.518;7.466;2023-06-14T13:34:06;0.80;;;0.80;;
49548;SDS011;35450;44.518;7.466;2023-06-14T13:37:10;6.47;;;5.85;;
49548;SDS011;35450;44.518;7.466;2023-06-14T13:40:14;5.40;;;4.90;;
49548;SDS011;35450;44.518;7.466;2023-06-14T13:43:18;4.80;;;4.30;;
49548;SDS011;35450;44.518;7.466;2023-06-14T13:46:23;7.80;;;4.05;;
49548;SDS011;35450;44.518;7.466;2023-06-14T13:49:27;5.43;;;4.07;;
49548;SDS011;35450;44.518;7.466;2023-06-14T13:52:31;3.90;;;3.50;;
49548;SDS011;35450;44.518;7.466;2023-06-14T13:55:35;4.57;;;3.63;;
49548;SDS011;35450;44.518;7.466;2023-06-14T13:58:41;4.13;;;3.72;;
49548;SDS011;35450;44.518;7.466;2023-06-14T14:01:45;4.20;;;3.80;;
49548;SDS011;35450;44.518;7.466;2023-06-14T14:04:50;5.53;;;4.10;;
49548;SDS011;35450;44.518;7.466;2023-06-14T14:07:57;8.50;;;4.35;;
49548;SDS011;35450;44.518;7.466;2023-06-14T14:11:01;2.95;;;2.75;;
49548;SDS011;35450;44.518;7.466;2023-06-14T14:14:06;4.70;;;2.72;;
49548;SDS011;35450;44.518;7.466;2023-06-14T14:17:10;2.92;;;2.17;;
49548;SDS011;35450;44.518;7.466;2023-06-14T14:20:15;4.15;;;1.80;;
49548;SDS011;35450;44.518;7.466;2023-06-14T14:23:21;2.45;;;2.00;;
49548;SDS011;35450;44.518;7.466;2023-06-14T14:26:25;3.50;;;1.95;;
49548;SDS011;35450;44.518;7.466;2023-06-14T14:29:30;2.17;;;1.70;;
49548;SDS011;35450;44.518;7.466;2023-06-14T14:32:34;3.00;;;2.75;;
49548;SDS011;35450;44.518;7.466;2023-06-14T14:35:38;4.45;;;3.75;;
49548;SDS011;35450;44.518;7.466;2023-06-14T14:38:42;9.45;;;3.90;;
49548;SDS011;35450;44.518;7.466;2023-06-14T14:41:46;4.10;;;3.65;;
49548;SDS011;35450;44.518;7.466;2023-06-14T14:44:50;3.22;;;2.58;;
49548;SDS011;35450;44.518;7.466;2023-06-14T14:47:54;3.50;;;3.20;;
49548;SDS011;35450;44.518;7.466;2023-06-14T14:50:58;6.72;;;2.88;;
49548;SDS011;35450;44.518;7.466;2023-06-14T14:54:02;7.45;;;3.55;;
49548;SDS011;35450;44.518;7.466;2023-06-14T14:57:06;3.13;;;2.58;;
49548;SDS011;35450;44.518;7.466;2023-06-14T15:00:11;3.13;;;2.53;;
49548;SDS011;35450;44.518;7.466;2023-06-14T15:03:15;2.90;;;2.60;;
49548;SDS011;35450;44.518;7.466;2023-06-14T15:06:27;6.50;;;2.78;;
49548;SDS011;35450;44.518;7.466;2023-06-14T15:09:32;2.10;;;1.90;;
49548;SDS011;35450;44.518;7.466;2023-06-14T15:12:35;3.15;;;2.20;;
49548;SDS011;35450;44.518;7.466;2023-06-14T15:15:41;2.75;;;2.45;;
49548;SDS011;35450;44.518;7.466;2023-06-14T15:18:45;2.35;;;2.13;;
49548;SDS011;35450;44.518;7.466;2023-06-14T15:21:49;1.95;;;1.75;;
49548;SDS011;35450;44.518;7.466;2023-06-14T15:24:53;2.22;;;1.90;;
49548;SDS011;35450;44.518;7.466;2023-06-14T15:27:57;2.85;;;1.85;;
49548;SDS011;35450;44.518;7.466;2023-06-14T15:31:01;3.08;;;1.92;;
49548;SDS011;35450;44.518;7.466;2023-06-14T15:34:06;5.15;;;2.05;;
49548;SDS011;35450;44.518;7.466;2023-06-14T15:37:10;4.22;;;2.00;;
49548;SDS011;35450;44.518;7.466;2023-06-14T15:40:15;1.73;;;1.63;;
49548;SDS011;35450;44.518;7.466;2023-06-14T15:43:19;2.00;;;1.80;;
49548;SDS011;35450;44.518;7.466;2023-06-14T15:46:23;2.78;;;1.60;;
49548;SDS011;35450;44.518;7.466;2023-06-14T15:49:27;2.33;;;1.50;;
49548;SDS011;35450;44.518;7.466;2023-06-14T15:52:31;2.90;;;1.90;;
49548;SDS011;35450;44.518;7.466;2023-06-14T15:55:35;4.40;;;1.85;;
49548;SDS011;35450;44.518;7.466;2023-06-14T15:58:39;3.67;;;2.28;;
49548;SDS011;35450;44.518;7.466;2023-06-14T16:01:43;3.08;;;2.20;;
49548;SDS011;35450;44.518;7.466;2023-06-14T16:04:47;3.33;;;2.42;;
49548;SDS011;35450;44.518;7.466;2023-06-14T16:07:52;4.47;;;2.03;;
49548;SDS011;35450;44.518;7.466;2023-06-14T16:10:56;3.10;;;2.00;;
49548;SDS011;35450;44.518;7.466;2023-06-14T16:14:00;2.00;;;1.80;;
49548;SDS011;35450;44.518;7.466;2023-06-14T16:17:07;5.93;;;1.42;;
49548;SDS011;35450;44.518;7.466;2023-06-14T16:20:11;1.95;;;1.60;;
49548;SDS011;35450;44.518;7.466;2023-06-14T16:23:15;2.85;;;1.80;;
49548;SDS011;35450;44.518;7.466;2023-06-14T16:26:20;1.92;;;1.73;;
49548;SDS011;35450;44.518;7.466;2023-06-14T16:29:24;6.30;;;1.70;;
49548;SDS011;35450;44.518;7.466;2023-06-14T16:32:28;4.05;;;1.90;;
49548;SDS011;35450;44.518;7.466;2023-06-14T16:35:32;2.03;;;1.70;;
49548;SDS011;35450;44.518;7.466;2023-06-14T16:38:37;2.83;;;1.88;;
49548;SDS011;35450;44.518;7.466;2023-06-14T16:41:41;3.28;;;1.77;;
49548;SDS011;35450;44.518;7.466;2023-06-14T16:44:45;4.78;;;1.83;;
49548;SDS011;35450;44.518;7.466;2023-06-14T16:47:49;2.85;;;1.33;;
49548;SDS011;35450;44.518;7.466;2023-06-14T16:50:53;1.90;;;1.75;;
49548;SDS011;35450;44.518;7.466;2023-06-14T16:53:57;1.48;;;1.38;;
49548;SDS011;35450;44.518;7.466;2023-06-14T16:57:01;7.45;;;1.60;;
49548;SDS011;35450;44.518;7.466;2023-06-14T17:00:06;4.07;;;1.27;;
49548;SDS011;35450;44.518;7.466;2023-06-14T17:03:10;3.83;;;1.50;;
49548;SDS011;35450;44.518;7.466;2023-06-14T17:06:15;11.57;;;3.40;;
49548;SDS011;35450;44.518;7.466;2023-06-14T17:09:18;10.98;;;2.50;;
49548;SDS011;35450;44.518;7.466;2023-06-14T17:12:22;12.18;;;3.05;;
49548;SDS011;35450;44.518;7.466;2023-06-14T17:15:26;4.57;;;1.92;;
49548;SDS011;35450;44.518;7.466;2023-06-14T17:18:30;2.85;;;1.48;;
49548;SDS011;35450;44.518;7.466;2023-06-14T17:21:34;2.42;;;1.27;;
49548;SDS011;35450;44.518;7.466;2023-06-14T17:24:39;4.93;;;1.40;;
49548;SDS011;35450;44.518;7.466;2023-06-14T17:27:43;2.45;;;1.50;;
49548;SDS011;35450;44.518;7.466;2023-06-14T17:30:47;1.88;;;1.60;;
49548;SDS011;35450;44.518;7.466;2023-06-14T17:33:51;8.00;;;2.40;;
49548;SDS011;35450;44.518;7.466;2023-06-14T17:36:55;9.50;;;2.70;;
49548;SDS011;35450;44.518;7.466;2023-06-14T17:39:59;7.70;;;3.45;;
49548;SDS011;35450;44.518;7.466;2023-06-14T17:43:03;7.00;;;3.63;;
49548;SDS011;35450;44.518;7.466;2023-06-14T17:46:07;7.80;;;2.00;;
49548;SDS011;35450;44.518;7.466;2023-06-14T17:49:11;4.63;;;1.70;;
49548;SDS011;35450;44.518;7.466;2023-06-14T17:52:15;3.75;;;2.33;;
49548;SDS011;35450;44.518;7.466;2023-06-14T17:55:21;11.43;;;1.73;;
49548;SDS011;35450;44.518;7.466;2023-06-14T17:58:25;2.22;;;1.88;;
49548;SDS011;35450;44.518;7.466;2023-06-14T18:01:29;6.55;;;1.80;;
49548;SDS011;35450;44.518;7.466;2023-06-14T18:04:33;1.70;;;1.60;;
49548;SDS011;35450;44.518;7.466;2023-06-14T18:07:37;4.70;;;1.75;;
49548;SDS011;35450;44.518;7.466;2023-06-14T18:10:41;5.88;;;1.60;;
49548;SDS011;35450;44.518;7.466;2023-06-14T18:13:45;5.47;;;1.73;;
49548;SDS011;35450;44.518;7.466;2023-06-14T18:16:49;5.32;;;1.60;;
49548;SDS011;35450;44.518;7.466;2023-06-14T18:19:54;4.35;;;1.80;;
49548;SDS011;35450;44.518;7.466;2023-06-14T18:22:58;4.00;;;1.23;;
49548;SDS011;35450;44.518;7.466;2023-06-14T18:26:02;5.82;;;1.50;;
49548;SDS011;35450;44.518;7.466;2023-06-14T18:29:06;5.07;;;1.70;;
49548;SDS011;35450;44.518;7.466;2023-06-14T18:32:09;5.30;;;1.40;;
49548;SDS011;35450;44.518;7.466;2023-06-14T18:35:14;2.47;;;1.48;;
49548;SDS011;35450;44.518;7.466;2023-06-14T18:38:19;2.58;;;1.23;;
49548;SDS011;35450;44.518;7.466;2023-06-14T18:41:23;3.08;;;1.70;;
49548;SDS011;35450;44.518;7.466;2023-06-14T18:44:28;5.22;;;1.80;;
49548;SDS011;35450;44.518;7.466;2023-06-14T18:47:31;2.38;;;1.30;;